< < Back
Terminal Aerodrome Forecast


Current Version              Previous Versions:   1  2  3  4  5  6  7  8  9  

Terminal Aerodrome Forecast

345
FTUS44 KMOB 211100 RRA
TAFMOB
TAF
KMOB 211147Z 2112/2212 01007KT P6SM FEW006 OVC028
     FM211500 06006KT P6SM OVC015
     FM220600 08004KT 4SM BR OVC007
     FM220900 10003KT 2SM BR OVC004=



Latest METAR

793
SAUS80 KWBC 211300 RRA
MTRMOB
METAR KMOB 211256Z 04005KT 7SM BKN028 BKN250 09/08 A3011 RMK AO2 SLP196
T00940083 $


USA.gov is the U.S. government's official web portal to all federal, state and local government web resources and services.